createdAt,value
2018-07-07T00:01:29.344Z,46.47
2018-07-07T00:03:58.293Z,46.22
2018-07-07T00:06:27.243Z,45.81
2018-07-07T00:08:56.205Z,45.77
2018-07-07T00:11:25.209Z,45.23
2018-07-07T00:13:54.260Z,45.53
2018-07-07T00:16:23.219Z,45.58
2018-07-07T00:18:52.126Z,44.84
2018-07-07T00:21:21.082Z,45.26
2018-07-07T00:23:50.089Z,45.51
2018-07-07T00:26:19.052Z,45.13
2018-07-07T00:28:48.068Z,45.32
2018-07-07T00:31:16.994Z,45.57
2018-07-07T00:33:46.011Z,46.03
2018-07-07T00:36:15.021Z,45.31
2018-07-07T00:38:44.028Z,45.55
2018-07-07T00:41:12.933Z,46.33
2018-07-07T00:43:41.841Z,46.86
2018-07-07T00:46:10.745Z,46.60
2018-07-07T00:48:39.705Z,47.18
2018-07-07T00:51:08.667Z,47.60
2018-07-07T00:53:37.587Z,48.33
2018-07-07T00:56:06.515Z,48.82
2018-07-07T00:58:35.472Z,48.45
2018-07-07T01:01:04.390Z,48.46
2018-07-07T01:03:33.316Z,48.82
2018-07-07T01:06:02.373Z,49.08
2018-07-07T01:08:31.302Z,48.93
2018-07-07T01:11:00.338Z,49.30
2018-07-07T01:13:29.239Z,49.04
2018-07-07T01:15:58.173Z,49.96
2018-07-07T01:18:27.125Z,49.96
2018-07-07T01:20:56.057Z,49.68
2018-07-07T01:23:24.989Z,49.64
2018-07-07T01:25:53.936Z,50.29
2018-07-07T01:28:22.848Z,50.61
2018-07-07T01:30:51.812Z,50.80
2018-07-07T01:33:20.717Z,51.18
2018-07-07T01:35:49.691Z,50.51
2018-07-07T01:38:18.634Z,50.81
2018-07-07T01:40:47.741Z,50.73
2018-07-07T01:43:16.637Z,50.62
2018-07-07T01:45:45.569Z,50.68
2018-07-07T01:48:14.517Z,51.22
2018-07-07T01:50:43.437Z,50.90
2018-07-07T01:53:12.364Z,51.15
2018-07-07T01:55:46.916Z,50.96
2018-07-07T01:58:15.868Z,50.99
2018-07-07T02:00:44.782Z,51.19
2018-07-07T02:03:13.693Z,51.32
2018-07-07T02:05:48.276Z,51.69
2018-07-07T02:08:17.249Z,51.92
2018-07-07T02:10:51.722Z,51.72
2018-07-07T02:13:20.641Z,52.24
2018-07-07T02:15:49.530Z,52.21
2018-07-07T02:18:18.405Z,51.83
2018-07-07T02:20:47.368Z,51.75
2018-07-07T02:23:16.279Z,51.53
2018-07-07T02:25:45.187Z,51.81
2018-07-07T02:28:14.115Z,53.72
2018-07-07T02:30:48.714Z,54.00
2018-07-07T02:33:17.701Z,54.20
2018-07-07T02:35:46.658Z,54.68
2018-07-07T02:38:21.135Z,53.54
2018-07-07T02:40:55.823Z,53.15
2018-07-07T02:43:30.207Z,52.98
2018-07-07T02:45:59.105Z,52.51
2018-07-07T02:48:28.042Z,53.00
2018-07-07T02:50:56.956Z,52.98
2018-07-07T02:53:25.917Z,52.89
2018-07-07T02:55:54.838Z,52.64
2018-07-07T02:58:23.751Z,52.74
2018-07-07T03:00:52.662Z,53.06
2018-07-07T03:03:21.648Z,53.26
2018-07-07T03:05:50.481Z,53.82
2018-07-07T03:08:19.416Z,54.73
2018-07-07T03:10:48.368Z,55.25
2018-07-07T03:13:17.267Z,55.37
2018-07-07T03:15:46.244Z,56.17
2018-07-07T03:18:15.198Z,56.90
2018-07-07T03:20:44.112Z,57.89
2018-07-07T03:23:13.084Z,57.85
2018-07-07T03:25:41.988Z,58.20
2018-07-07T03:28:10.978Z,59.13
2018-07-07T03:30:39.931Z,59.35
2018-07-07T03:33:08.868Z,59.30
2018-07-07T03:35:37.796Z,59.65
2018-07-07T03:38:06.702Z,58.88
2018-07-07T03:40:35.598Z,59.32
2018-07-07T03:43:04.562Z,59.09
2018-07-07T03:45:39.059Z,58.68
2018-07-07T03:48:08.004Z,58.62
2018-07-07T03:50:36.933Z,58.83
2018-07-07T03:53:05.920Z,58.53
2018-07-07T03:55:34.859Z,58.64
2018-07-07T03:58:03.814Z,57.83
2018-07-07T04:00:32.830Z,57.32
2018-07-07T04:03:01.747Z,56.84
2018-07-07T04:05:30.684Z,56.78
2018-07-07T04:07:59.652Z,56.43
2018-07-07T04:10:28.778Z,56.69
2018-07-07T04:12:57.664Z,55.94
2018-07-07T04:15:26.640Z,55.70
2018-07-07T04:17:55.569Z,56.46
2018-07-07T04:20:24.570Z,56.34
2018-07-07T04:22:53.516Z,56.06
2018-07-07T04:25:22.448Z,56.09
2018-07-07T04:27:51.428Z,56.47
2018-07-07T04:30:20.292Z,56.51
2018-07-07T04:32:49.260Z,56.72
2018-07-07T04:35:18.228Z,56.51
2018-07-07T04:37:47.152Z,56.70
2018-07-07T04:40:16.172Z,56.69
2018-07-07T04:42:45.120Z,57.10
2018-07-07T04:45:14.096Z,56.85
2018-07-07T04:47:43.016Z,56.78
2018-07-07T04:50:11.915Z,57.36
2018-07-07T04:52:40.808Z,57.41
2018-07-07T04:55:09.768Z,57.09
2018-07-07T04:57:38.900Z,57.70
2018-07-07T05:00:07.856Z,57.02
2018-07-07T05:02:36.868Z,56.99
2018-07-07T05:05:05.840Z,56.62
2018-07-07T05:07:34.781Z,56.95
2018-07-07T05:10:03.748Z,56.57
2018-07-07T05:12:32.720Z,55.03
2018-07-07T05:15:01.652Z,54.62
2018-07-07T05:17:30.636Z,54.56
2018-07-07T05:19:59.528Z,53.95
2018-07-07T05:22:28.462Z,53.23
2018-07-07T05:24:57.408Z,53.47
2018-07-07T05:27:26.344Z,52.33
2018-07-07T05:29:55.300Z,51.83
2018-07-07T05:32:24.242Z,51.20
2018-07-07T05:34:53.175Z,51.57
2018-07-07T05:37:22.336Z,51.64
2018-07-07T05:39:51.218Z,50.98
2018-07-07T05:42:20.183Z,51.49
2018-07-07T05:44:49.142Z,51.45
2018-07-07T05:47:18.124Z,50.72
2018-07-07T05:49:47.124Z,50.75
2018-07-07T05:52:16.016Z,50.68
2018-07-07T05:54:44.984Z,50.66
2018-07-07T05:57:13.902Z,50.38
2018-07-07T05:59:42.879Z,50.87
2018-07-07T06:02:11.852Z,50.52
2018-07-07T06:04:40.828Z,49.74
2018-07-07T06:07:09.734Z,50.13
2018-07-07T06:09:38.748Z,49.73
2018-07-07T06:12:07.692Z,49.49
2018-07-07T06:14:36.637Z,49.31
2018-07-07T06:17:11.105Z,49.87
2018-07-07T06:19:45.716Z,49.31
2018-07-07T06:22:14.643Z,49.33
2018-07-07T06:24:43.552Z,49.50
2018-07-07T06:27:12.587Z,49.19
2018-07-07T06:29:41.521Z,48.83
2018-07-07T06:32:10.437Z,49.24
2018-07-07T06:34:39.369Z,48.05
2018-07-07T06:37:08.325Z,47.81
2018-07-07T06:39:37.261Z,46.85
2018-07-07T06:42:06.166Z,46.44
2018-07-07T06:44:35.209Z,46.22
2018-07-07T06:47:04.281Z,45.83
2018-07-07T06:49:33.189Z,45.78
2018-07-07T06:52:02.065Z,46.56
2018-07-07T06:54:31.097Z,45.35
2018-07-07T06:57:00.037Z,44.80
2018-07-07T06:59:28.979Z,44.40
2018-07-07T07:01:57.826Z,43.12
2018-07-07T07:04:26.741Z,43.03
2018-07-07T07:06:55.691Z,43.80
2018-07-07T07:09:24.709Z,43.64
2018-07-07T07:11:53.689Z,43.02
2018-07-07T07:14:22.593Z,43.16
2018-07-07T07:16:51.488Z,42.74
2018-07-07T07:19:20.425Z,39.69
2018-07-07T07:21:49.377Z,39.56
2018-07-07T07:24:18.345Z,39.44
2018-07-07T07:26:47.293Z,38.11
2018-07-07T07:29:21.797Z,37.10
2018-07-07T07:31:50.824Z,38.39
2018-07-07T07:34:19.780Z,38.19
2018-07-07T07:36:49.115Z,37.80
2018-07-07T07:39:17.996Z,37.22
2018-07-07T07:54:46.950Z,35.26
2018-07-07T07:57:15.957Z,34.72
2018-07-07T07:59:45.136Z,34.04
2018-07-07T08:02:14.056Z,32.91
2018-07-07T08:04:43.007Z,31.03
2018-07-07T08:07:11.965Z,30.50
2018-07-07T08:09:40.931Z,31.34
2018-07-07T08:12:09.904Z,31.94
2018-07-07T08:14:38.845Z,31.50
2018-07-07T08:17:07.756Z,32.70
2018-07-07T08:19:36.732Z,33.09
2018-07-07T08:22:06.130Z,33.19
2018-07-07T08:24:35.017Z,32.64
2018-07-07T08:27:03.987Z,33.29
2018-07-07T08:29:32.882Z,33.66
2018-07-07T08:32:01.817Z,32.71
2018-07-07T08:34:30.895Z,32.04
2018-07-07T08:36:59.819Z,33.01
2018-07-07T08:39:28.818Z,32.95
2018-07-07T08:41:57.838Z,33.68
2018-07-07T08:44:26.848Z,35.10
2018-07-07T08:46:55.854Z,35.70
2018-07-07T08:49:25.201Z,37.63
2018-07-07T08:51:54.347Z,37.11
2018-07-07T08:54:23.260Z,37.01
2018-07-07T08:56:52.250Z,36.81
2018-07-07T08:59:21.154Z,36.29
2018-07-07T09:01:50.084Z,36.99
2018-07-07T09:04:24.646Z,36.47
2018-07-07T09:06:59.292Z,36.51
2018-07-07T09:09:28.254Z,36.65
2018-07-07T09:11:57.295Z,37.12
2018-07-07T09:14:26.206Z,36.71
2018-07-07T09:16:55.136Z,36.73
2018-07-07T09:19:24.033Z,36.95
2018-07-07T09:21:52.989Z,36.81
2018-07-07T09:24:21.980Z,36.87
2018-07-07T09:26:51.249Z,36.49
2018-07-07T09:29:20.248Z,36.81
2018-07-07T09:31:49.233Z,37.41
2018-07-07T09:34:18.214Z,36.57
2018-07-07T09:36:47.131Z,36.63
2018-07-07T09:39:16.100Z,37.65
2018-07-07T09:41:45.073Z,37.05
2018-07-07T09:44:14.064Z,37.50
2018-07-07T09:46:42.986Z,37.55
2018-07-07T09:49:12.028Z,37.58
2018-07-07T09:51:40.998Z,37.03
2018-07-07T09:54:09.979Z,37.08
2018-07-07T09:56:38.985Z,36.74
2018-07-07T09:59:08.029Z,36.93
2018-07-07T10:01:37.017Z,37.05
2018-07-07T10:04:05.938Z,37.65
2018-07-07T10:06:34.890Z,37.11
2018-07-07T10:09:04.620Z,36.70
2018-07-07T10:11:33.536Z,36.43
2018-07-07T10:14:02.510Z,35.89
2018-07-07T10:16:31.453Z,36.07
2018-07-07T10:19:00.398Z,35.25
2018-07-07T10:21:29.418Z,35.37
2018-07-07T10:23:58.375Z,34.18
2018-07-07T10:26:27.320Z,34.32
2018-07-07T10:28:56.253Z,34.48
2018-07-07T10:31:25.197Z,34.73
2018-07-07T10:33:54.169Z,34.61
2018-07-07T10:36:23.989Z,35.43
2018-07-07T10:38:53.024Z,35.68
2018-07-07T10:41:21.950Z,35.31
2018-07-07T10:43:50.960Z,36.10
2018-07-07T10:46:19.929Z,36.38
2018-07-07T10:48:48.924Z,36.78
2018-07-07T10:51:17.901Z,37.09
2018-07-07T10:53:46.942Z,36.49
2018-07-07T10:56:15.901Z,36.49
2018-07-07T10:58:44.846Z,35.93
2018-07-07T11:01:13.926Z,36.00
2018-07-07T11:03:43.116Z,35.60
2018-07-07T11:06:12.113Z,36.12
2018-07-07T11:08:41.056Z,36.48
2018-07-07T11:11:10.055Z,35.75
2018-07-07T11:13:38.999Z,35.83
2018-07-07T11:16:07.993Z,36.07
2018-07-07T11:18:36.930Z,34.92
2018-07-07T11:21:05.968Z,34.94
2018-07-07T11:23:34.940Z,35.00
2018-07-07T11:26:03.936Z,35.13
2018-07-07T11:28:32.935Z,33.56
2018-07-07T11:31:01.959Z,33.52
2018-07-07T11:33:30.932Z,32.59
2018-07-07T11:35:59.858Z,33.00
2018-07-07T11:38:28.936Z,32.34
2018-07-07T11:40:57.886Z,33.16
2018-07-07T11:43:32.587Z,33.54
2018-07-07T11:46:01.487Z,33.68
2018-07-07T11:48:30.470Z,34.25
2018-07-07T11:50:59.473Z,34.17
2018-07-07T11:53:28.405Z,34.08
2018-07-07T11:55:57.390Z,34.89
2018-07-07T11:58:26.324Z,35.18
2018-07-07T12:00:55.288Z,35.06
2018-07-07T12:03:24.281Z,34.97
2018-07-07T12:05:53.334Z,33.66
2018-07-07T12:08:22.325Z,33.80
2018-07-07T12:10:51.285Z,33.40
2018-07-07T12:13:20.229Z,33.00
2018-07-07T12:15:49.227Z,32.71
2018-07-07T12:18:18.151Z,33.56
2018-07-07T12:20:47.131Z,34.38
2018-07-07T12:23:16.191Z,34.13
2018-07-07T12:25:45.177Z,34.05
2018-07-07T12:28:14.238Z,34.10
2018-07-07T12:30:43.192Z,34.20
2018-07-07T12:33:12.132Z,34.91
2018-07-07T12:35:41.105Z,34.57
2018-07-07T12:38:10.124Z,35.24
2018-07-07T12:40:39.035Z,34.72
2018-07-07T12:43:08.033Z,34.77
2018-07-07T12:45:36.997Z,33.78
2018-07-07T12:48:06.016Z,34.72
2018-07-07T12:50:34.971Z,34.05
2018-07-07T12:53:03.943Z,34.76
2018-07-07T12:55:32.916Z,33.54
2018-07-07T12:58:01.934Z,34.64
2018-07-07T13:00:30.917Z,35.21
2018-07-07T13:02:59.897Z,35.23
2018-07-07T13:05:34.350Z,35.47
2018-07-07T13:08:07.130Z,36.18
2018-07-07T13:10:36.111Z,36.47
2018-07-07T13:13:05.120Z,36.08
2018-07-07T13:15:34.049Z,35.73
2018-07-07T13:18:08.629Z,36.78
2018-07-07T13:20:37.602Z,36.35
2018-07-07T13:23:12.125Z,37.59
2018-07-07T13:25:41.141Z,37.32
2018-07-07T13:28:10.282Z,37.15
2018-07-07T13:30:45.420Z,37.27
2018-07-07T13:33:14.504Z,36.69
2018-07-07T13:35:43.289Z,36.77
2018-07-07T13:38:12.289Z,35.90
2018-07-07T13:40:41.227Z,36.04
2018-07-07T13:43:10.237Z,35.45
2018-07-07T13:45:39.176Z,35.64
2018-07-07T13:48:08.408Z,34.45
2018-07-07T13:50:37.599Z,34.82
2018-07-07T13:53:06.503Z,35.28
2018-07-07T13:55:35.450Z,34.97
2018-07-07T13:58:04.480Z,35.07
2018-07-07T14:00:33.442Z,34.83
2018-07-07T14:03:02.343Z,34.66
2018-07-07T14:05:31.358Z,35.21
2018-07-07T14:08:00.293Z,35.81
2018-07-07T14:10:29.259Z,35.69
2018-07-07T14:12:58.233Z,36.07
2018-07-07T14:15:27.169Z,36.98
2018-07-07T14:17:56.170Z,37.27
2018-07-07T14:20:25.706Z,37.28
2018-07-07T14:22:54.724Z,36.74
2018-07-07T14:25:23.691Z,37.17
2018-07-07T14:27:58.285Z,36.44
2018-07-07T14:30:27.242Z,37.42
2018-07-07T14:32:56.207Z,37.19
2018-07-07T14:35:25.157Z,36.42
2018-07-07T14:37:54.118Z,36.30
2018-07-07T14:40:23.128Z,35.77
2018-07-07T14:42:53.197Z,36.28
2018-07-07T14:45:24.087Z,35.71
2018-07-07T14:47:54.376Z,35.46
2018-07-07T14:50:23.574Z,35.54
2018-07-07T14:52:52.572Z,35.01
2018-07-07T14:55:23.094Z,34.49
2018-07-07T14:57:52.079Z,33.84
2018-07-07T15:00:23.216Z,33.36
2018-07-07T15:02:53.356Z,34.01
2018-07-07T15:05:22.275Z,34.24
2018-07-07T15:07:51.344Z,33.05
2018-07-07T15:10:20.281Z,33.44
2018-07-07T15:12:49.619Z,33.47
2018-07-07T15:15:18.556Z,33.23
2018-07-07T15:17:47.821Z,33.25
2018-07-07T15:20:16.746Z,33.65
2018-07-07T15:22:45.835Z,33.27
2018-07-07T15:25:14.634Z,33.29
2018-07-07T15:27:43.630Z,33.52
2018-07-07T15:30:12.594Z,34.09
2018-07-07T15:32:41.553Z,34.00
2018-07-07T15:35:10.475Z,34.11
2018-07-07T15:37:39.388Z,34.48
2018-07-07T15:40:08.309Z,34.08
2018-07-07T15:42:37.299Z,34.48
2018-07-07T15:45:06.234Z,34.80
2018-07-07T15:47:35.163Z,35.18
2018-07-07T15:50:04.616Z,34.73
2018-07-07T15:52:39.171Z,34.98
2018-07-07T15:55:08.232Z,35.26
2018-07-07T15:57:37.238Z,34.68
2018-07-07T16:00:07.933Z,35.57
2018-07-07T16:02:36.913Z,35.10
2018-07-07T16:05:06.072Z,35.41
2018-07-07T16:07:35.137Z,35.79
2018-07-07T16:10:04.341Z,35.93
2018-07-07T16:12:33.378Z,35.86
2018-07-07T16:15:02.280Z,36.37
2018-07-07T16:17:31.411Z,36.46
2018-07-07T16:20:00.357Z,35.96
2018-07-07T16:22:29.343Z,36.49
2018-07-07T16:31:49.068Z,36.23
2018-07-07T16:34:17.965Z,35.55
2018-07-07T16:36:46.921Z,36.09
2018-07-07T16:39:15.831Z,35.49
2018-07-07T16:41:44.828Z,35.82
2018-07-07T16:44:13.840Z,36.11
2018-07-07T16:46:42.807Z,36.25
2018-07-07T16:49:11.824Z,36.25
2018-07-07T16:51:41.764Z,36.99
2018-07-07T16:54:17.672Z,37.36
2018-07-07T16:56:46.638Z,37.33
2018-07-07T16:59:16.126Z,36.54
2018-07-07T17:01:45.161Z,37.16
2018-07-07T17:04:15.117Z,36.83
2018-07-07T17:06:44.074Z,37.20
2018-07-07T17:09:13.240Z,36.96
2018-07-07T17:11:42.282Z,36.72
2018-07-07T17:14:11.585Z,36.81
2018-07-07T17:16:41.430Z,37.25
2018-07-07T17:19:11.597Z,37.52
2018-07-07T17:21:40.591Z,38.07
2018-07-07T17:24:09.588Z,38.83
2018-07-07T17:26:38.579Z,38.44
2018-07-07T17:29:07.548Z,38.16
2018-07-07T17:31:36.525Z,38.41
2018-07-07T17:34:05.490Z,38.64
2018-07-07T17:36:34.432Z,38.56
2018-07-07T17:39:04.729Z,39.10
2018-07-07T17:41:34.204Z,38.98
2018-07-07T17:44:03.186Z,39.11
2018-07-07T17:46:32.159Z,39.07
2018-07-07T17:49:01.208Z,38.89
2018-07-07T17:51:35.652Z,38.96
2018-07-07T17:54:04.644Z,39.13
2018-07-07T17:56:33.726Z,39.44
2018-07-07T17:59:03.028Z,39.04
2018-07-07T18:01:32.382Z,39.21
2018-07-07T18:04:01.359Z,38.94
2018-07-07T18:06:30.292Z,39.23
2018-07-07T18:08:59.220Z,39.58
2018-07-07T18:11:28.237Z,39.55
2018-07-07T18:13:57.131Z,39.55
2018-07-07T18:16:26.029Z,39.83
2018-07-07T18:18:54.996Z,39.87
2018-07-07T18:21:23.989Z,39.61
2018-07-07T18:23:52.999Z,39.19
2018-07-07T18:26:22.060Z,39.17
2018-07-07T18:28:50.984Z,39.47
2018-07-07T18:31:19.928Z,39.92
2018-07-07T18:33:48.903Z,39.45
2018-07-07T18:36:17.899Z,39.76
2018-07-07T18:38:46.903Z,40.21
2018-07-07T18:41:15.913Z,40.57
2018-07-07T18:43:44.887Z,39.50
2018-07-07T18:46:13.825Z,40.05
2018-07-07T18:48:42.722Z,39.12
2018-07-07T18:51:11.738Z,39.25
2018-07-07T18:53:40.674Z,39.14
2018-07-07T18:56:09.572Z,39.44
2018-07-07T18:58:38.572Z,40.49
2018-07-07T19:01:07.517Z,41.21
2018-07-07T19:03:36.440Z,41.64
2018-07-07T19:06:05.476Z,41.97
2018-07-07T19:08:34.460Z,42.37
2018-07-07T19:11:03.430Z,43.27
2018-07-07T19:13:32.348Z,43.63
2018-07-07T19:16:01.271Z,43.90
2018-07-07T19:18:30.332Z,43.44
2018-07-07T19:21:04.358Z,44.29
2018-07-07T19:23:38.460Z,45.51
2018-07-07T19:26:12.733Z,46.35
2018-07-07T19:28:41.607Z,47.11
2018-07-07T19:31:10.515Z,47.44
2018-07-07T19:33:44.776Z,47.98
2018-07-07T19:36:19.025Z,48.16
2018-07-07T19:38:47.999Z,48.71
2018-07-07T19:41:17.181Z,48.84
2018-07-07T19:43:46.167Z,48.97
2018-07-07T19:46:15.164Z,49.34
2018-07-07T19:48:44.080Z,49.74
2018-07-07T19:51:13.173Z,50.05
2018-07-07T19:53:42.198Z,50.05
2018-07-07T19:56:11.137Z,49.73
2018-07-07T19:58:40.156Z,49.44
2018-07-07T20:01:09.098Z,49.93
2018-07-07T20:03:38.089Z,50.16
2018-07-07T20:06:07.024Z,49.86
2018-07-07T20:08:36.000Z,50.06
2018-07-07T20:11:04.944Z,50.57
2018-07-07T20:13:33.990Z,50.69
2018-07-07T20:16:18.496Z,50.86
2018-07-07T20:19:25.630Z,50.72
2018-07-07T20:21:56.883Z,51.46
2018-07-07T20:24:31.101Z,51.65
2018-07-07T20:27:05.228Z,51.96
2018-07-07T20:29:34.276Z,52.71
2018-07-07T20:32:03.252Z,51.72
2018-07-07T20:34:32.364Z,51.84
2018-07-07T20:37:01.284Z,52.41
2018-07-07T20:39:30.252Z,51.10
2018-07-07T20:41:59.210Z,50.79
2018-07-07T20:44:28.167Z,50.42
2018-07-07T20:46:57.135Z,49.41
2018-07-07T20:49:26.042Z,48.94
2018-07-07T20:52:00.384Z,48.77
2018-07-07T20:54:34.798Z,49.32
2018-07-07T20:57:03.787Z,49.32
2018-07-07T20:59:32.660Z,49.04
2018-07-07T21:02:01.696Z,48.68
2018-07-07T21:04:30.572Z,48.23
2018-07-07T21:06:59.524Z,47.49
2018-07-07T21:09:28.458Z,47.86
2018-07-07T21:11:57.427Z,47.59
2018-07-07T21:14:26.455Z,48.68
2018-07-07T21:16:55.400Z,48.35
2018-07-07T21:19:24.358Z,47.48
2018-07-07T21:21:53.338Z,47.61
2018-07-07T21:24:22.225Z,47.37
2018-07-07T21:26:51.184Z,47.20
2018-07-07T21:29:20.176Z,47.34
2018-07-07T21:31:49.145Z,48.15
2018-07-07T21:34:18.070Z,47.87
2018-07-07T21:36:47.054Z,49.12
2018-07-07T21:39:16.025Z,49.00
2018-07-07T21:41:44.934Z,49.95
2018-07-07T21:44:13.955Z,50.15
2018-07-07T21:46:42.900Z,50.89
2018-07-07T21:49:11.920Z,51.64
2018-07-07T21:51:40.909Z,51.50
2018-07-07T21:54:09.855Z,52.33
2018-07-07T21:56:38.749Z,52.55
2018-07-07T21:59:12.941Z,52.57
2018-07-07T22:01:55.069Z,52.87
2018-07-07T22:04:30.621Z,53.26
2018-07-07T22:07:05.570Z,53.33
2018-07-07T22:09:35.336Z,53.61
2018-07-07T22:12:04.327Z,53.88
2018-07-07T22:14:33.408Z,54.92
2018-07-07T22:17:02.379Z,54.67
2018-07-07T22:19:31.350Z,55.15
2018-07-07T22:22:05.312Z,55.09
2018-07-07T22:24:34.370Z,55.88
2018-07-07T22:27:18.031Z,55.91
2018-07-07T22:29:46.950Z,55.61
2018-07-07T22:32:20.280Z,55.30
2018-07-07T22:34:49.367Z,55.19
2018-07-07T22:37:18.308Z,55.33
2018-07-07T22:39:47.475Z,55.52
2018-07-07T22:42:18.484Z,56.80
2018-07-07T22:44:48.529Z,56.81
2018-07-07T22:47:17.452Z,56.86
2018-07-07T22:49:46.384Z,56.59
2018-07-07T22:52:15.320Z,56.85
2018-07-07T22:54:44.275Z,56.70
2018-07-07T22:57:13.210Z,56.88
2018-07-07T22:59:42.120Z,57.63
2018-07-07T23:02:11.049Z,58.10
2018-07-07T23:04:39.971Z,57.79
2018-07-07T23:07:14.453Z,57.85
2018-07-07T23:09:43.426Z,58.29
2018-07-07T23:12:12.358Z,58.17
2018-07-07T23:14:41.301Z,57.98
2018-07-07T23:17:10.301Z,57.47
2018-07-07T23:19:39.201Z,57.39
2018-07-07T23:22:08.141Z,57.93
2018-07-07T23:24:37.051Z,58.09
2018-07-07T23:27:06.001Z,59.06
2018-07-07T23:29:34.915Z,59.43
2018-07-07T23:32:03.922Z,59.55
2018-07-07T23:34:32.813Z,59.39
2018-07-07T23:37:01.805Z,59.82
2018-07-07T23:39:36.454Z,59.39
2018-07-07T23:42:10.982Z,59.54
2018-07-07T23:44:39.915Z,60.09
2018-07-07T23:47:08.832Z,59.91
2018-07-07T23:49:37.765Z,60.23
2018-07-07T23:52:06.732Z,60.57
2018-07-07T23:54:35.777Z,60.34
2018-07-07T23:57:04.721Z,60.89
2018-07-07T23:59:33.661Z,60.38
